createdAt,value
2022-10-11T00:02:26.519Z,8.07
2022-10-11T00:04:54.130Z,7.85
2022-10-11T00:07:21.819Z,4.50
2022-10-11T00:09:49.328Z,8.00
2022-10-11T00:12:16.888Z,5.97
2022-10-11T00:14:44.407Z,10.07
2022-10-11T00:17:12.051Z,12.38
2022-10-11T00:19:39.540Z,7.97
2022-10-11T00:22:07.097Z,9.43
2022-10-11T00:24:34.694Z,7.68
2022-10-11T00:27:02.193Z,9.85
2022-10-11T00:29:29.700Z,12.80
2022-10-11T00:31:57.345Z,6.57
2022-10-11T00:34:24.871Z,6.85
2022-10-11T00:36:52.474Z,8.05
2022-10-11T00:39:20.053Z,6.00
2022-10-11T00:41:49.106Z,7.65
2022-10-11T00:44:21.466Z,5.25
2022-10-11T00:46:55.895Z,7.20
2022-10-11T00:49:28.653Z,4.65
2022-10-11T00:51:59.246Z,6.70
2022-10-11T00:54:28.170Z,7.20
2022-10-11T00:56:59.188Z,8.38
2022-10-11T00:59:29.124Z,7.37
2022-10-11T01:01:56.712Z,5.30
2022-10-11T01:04:24.356Z,10.00
2022-10-11T01:06:52.674Z,3.97
2022-10-11T01:09:20.747Z,7.15
2022-10-11T01:11:50.063Z,8.13
2022-10-11T01:14:37.865Z,8.02
2022-10-11T01:17:20.793Z,7.55
2022-10-11T01:20:03.365Z,6.50
2022-10-11T01:22:49.301Z,8.35
2022-10-11T01:25:27.801Z,6.75
2022-10-11T01:28:07.512Z,16.35
2022-10-11T01:30:35.835Z,6.38
2022-10-11T01:33:03.378Z,6.80
2022-10-11T01:35:33.158Z,8.07
2022-10-11T01:38:03.382Z,6.40
2022-10-11T01:40:36.063Z,6.95
2022-10-11T01:43:04.678Z,6.32
2022-10-11T01:45:33.467Z,7.90
2022-10-11T01:48:08.800Z,6.07
2022-10-11T01:50:47.690Z,5.30
2022-10-11T01:53:34.166Z,8.65
2022-10-11T01:56:04.910Z,6.88
2022-10-11T01:58:49.394Z,7.03
2022-10-11T02:01:37.775Z,7.45
2022-10-11T02:04:16.069Z,11.07
2022-10-11T02:07:00.200Z,9.25
2022-10-11T02:09:33.612Z,7.25
2022-10-11T02:12:04.017Z,12.30
2022-10-11T02:14:33.544Z,10.20
2022-10-11T02:17:04.394Z,8.65
2022-10-11T02:19:35.180Z,9.25
2022-10-11T02:22:05.371Z,7.85
2022-10-11T02:24:34.207Z,8.25
2022-10-11T02:27:03.614Z,8.52
2022-10-11T02:29:33.114Z,8.13
2022-10-11T02:32:01.011Z,9.98
2022-10-11T02:34:31.269Z,9.10
2022-10-11T02:36:58.758Z,9.40
2022-10-11T02:39:32.544Z,6.80
2022-10-11T02:42:02.988Z,9.18
2022-10-11T02:44:36.521Z,8.65
2022-10-11T02:47:04.552Z,8.13
2022-10-11T02:49:32.450Z,8.63
2022-10-11T02:52:00.315Z,7.25
2022-10-11T02:54:28.165Z,9.80
2022-10-11T02:56:55.710Z,9.02
2022-10-11T02:59:23.295Z,11.10
2022-10-11T03:01:50.919Z,8.73
2022-10-11T03:04:18.563Z,8.15
2022-10-11T03:06:46.128Z,11.27
2022-10-11T03:09:13.641Z,9.93
2022-10-11T03:11:41.136Z,9.85
2022-10-11T03:14:08.693Z,10.45
2022-10-11T03:16:36.247Z,15.45
2022-10-11T03:19:03.858Z,13.48
2022-10-11T03:21:31.402Z,6.70
2022-10-11T03:23:58.944Z,10.63
2022-10-11T03:26:26.465Z,7.78
2022-10-11T03:28:54.073Z,10.13
2022-10-11T03:31:23.560Z,9.02
2022-10-11T03:33:51.109Z,11.75
2022-10-11T03:36:18.642Z,7.68
2022-10-11T03:38:46.164Z,11.18
2022-10-11T03:41:13.702Z,7.30
2022-10-11T03:43:41.237Z,11.13
2022-10-11T03:46:09.257Z,6.75
2022-10-11T03:48:37.200Z,11.88
2022-10-11T03:51:04.757Z,10.68
2022-10-11T03:53:32.279Z,8.70
2022-10-11T03:56:02.364Z,8.40
2022-10-11T03:58:32.311Z,8.38
2022-10-11T04:00:59.851Z,8.95
2022-10-11T04:03:27.410Z,9.68
2022-10-11T04:05:54.913Z,9.85
2022-10-11T04:08:22.499Z,7.93
2022-10-11T04:10:50.006Z,6.97
2022-10-11T04:13:17.780Z,7.32
2022-10-11T04:15:45.298Z,9.73
2022-10-11T04:18:12.847Z,6.68
2022-10-11T04:20:40.403Z,5.57
2022-10-11T04:23:07.978Z,7.07
2022-10-11T04:25:35.485Z,7.60
2022-10-11T04:28:03.170Z,8.07
2022-10-11T04:30:30.889Z,8.57
2022-10-11T04:32:58.808Z,7.07
2022-10-11T04:35:26.469Z,9.35
2022-10-11T04:37:53.981Z,8.35
2022-10-11T04:40:21.503Z,7.75
2022-10-11T04:42:50.497Z,7.43
2022-10-11T04:45:18.024Z,8.65
2022-10-11T04:47:45.518Z,9.38
2022-10-11T04:50:13.024Z,7.18
2022-10-11T04:52:40.570Z,5.25
2022-10-11T04:55:08.262Z,7.50
2022-10-11T04:57:35.832Z,6.82
2022-10-11T05:00:04.387Z,9.50
2022-10-11T05:02:32.235Z,6.72
2022-10-11T05:04:59.899Z,8.70
2022-10-11T05:07:27.431Z,8.90
2022-10-11T05:09:55.112Z,12.57
2022-10-11T05:12:23.207Z,6.47
2022-10-11T05:14:50.734Z,6.90
2022-10-11T05:17:18.483Z,12.35
2022-10-11T05:19:46.099Z,9.00
2022-10-11T05:22:13.611Z,6.65
2022-10-11T05:24:41.150Z,8.80
2022-10-11T05:27:08.679Z,7.63
2022-10-11T05:29:36.213Z,7.93
2022-10-11T05:32:03.949Z,6.75
2022-10-11T05:34:31.479Z,8.68
2022-10-11T05:36:59.038Z,6.45
2022-10-11T05:39:26.734Z,8.38
2022-10-11T05:41:54.272Z,7.10
2022-10-11T05:44:21.762Z,5.97
2022-10-11T05:46:49.262Z,8.43
2022-10-11T05:49:16.802Z,9.30
2022-10-11T05:51:44.384Z,10.57
2022-10-11T05:54:11.910Z,8.13
2022-10-11T05:56:39.422Z,9.73
2022-10-11T05:59:07.031Z,8.55
2022-10-11T06:01:34.593Z,10.80
2022-10-11T06:04:02.738Z,5.75
2022-10-11T06:06:30.246Z,8.43
2022-10-11T06:08:57.817Z,7.22
2022-10-11T06:11:26.944Z,7.45
2022-10-11T06:13:55.437Z,6.35
2022-10-11T06:16:22.936Z,6.38
2022-10-11T06:18:53.473Z,6.22
2022-10-11T06:21:21.486Z,9.77
2022-10-11T06:23:50.613Z,7.65
2022-10-11T06:26:18.612Z,9.43
2022-10-11T06:28:46.629Z,5.85
2022-10-11T06:31:14.453Z,6.18
2022-10-11T06:33:41.988Z,6.90
2022-10-11T06:36:13.413Z,8.40
2022-10-11T06:38:45.011Z,8.65
2022-10-11T06:41:23.486Z,11.70
2022-10-11T06:43:51.300Z,6.18
2022-10-11T06:46:19.704Z,8.07
2022-10-11T06:48:47.881Z,9.55
2022-10-11T06:51:16.371Z,10.43
2022-10-11T06:53:43.920Z,12.82
2022-10-11T06:56:13.673Z,8.88
2022-10-11T06:58:41.331Z,12.25
2022-10-11T07:01:10.056Z,10.45
2022-10-11T07:03:37.984Z,12.07
2022-10-11T07:06:10.214Z,11.25
2022-10-11T07:08:38.448Z,7.72
2022-10-11T07:11:07.861Z,9.07
2022-10-11T07:13:35.611Z,8.88
2022-10-11T07:16:04.638Z,7.32
2022-10-11T07:18:32.452Z,9.60
2022-10-11T07:21:02.958Z,10.15
2022-10-11T07:23:30.546Z,8.45
2022-10-11T07:25:58.163Z,11.65
2022-10-11T07:28:26.096Z,12.05
2022-10-11T07:30:53.754Z,8.70
2022-10-11T07:33:21.251Z,6.60
2022-10-11T07:35:49.283Z,8.25
2022-10-11T07:38:17.400Z,6.30
2022-10-11T07:40:46.357Z,9.88
2022-10-11T07:43:14.057Z,12.05
2022-10-11T07:45:42.224Z,7.45
2022-10-11T07:48:09.959Z,10.30
2022-10-11T07:50:37.862Z,10.60
2022-10-11T07:53:05.590Z,9.85
2022-10-11T07:55:40.130Z,8.23
2022-10-11T07:58:08.938Z,7.72
2022-10-11T08:00:36.560Z,9.25
2022-10-11T08:03:07.332Z,14.88
2022-10-11T08:05:35.017Z,9.23
2022-10-11T08:08:04.082Z,12.05
2022-10-11T08:10:31.601Z,15.77
2022-10-11T08:13:04.078Z,10.23
2022-10-11T08:15:32.023Z,11.25
2022-10-11T08:17:59.542Z,12.23
2022-10-11T08:20:27.055Z,7.28
2022-10-11T08:22:54.536Z,10.40
2022-10-11T08:25:22.105Z,11.70
2022-10-11T08:27:49.610Z,12.02
2022-10-11T08:30:17.160Z,16.30
2022-10-11T08:32:44.657Z,9.38
2022-10-11T08:35:12.266Z,13.55
2022-10-11T08:37:39.866Z,11.27
2022-10-11T08:40:07.725Z,16.17
2022-10-11T08:42:37.919Z,8.20
2022-10-11T08:45:11.425Z,9.80
2022-10-11T08:47:44.763Z,8.75
2022-10-11T08:50:20.313Z,12.13
2022-10-11T08:52:56.490Z,8.95
2022-10-11T08:55:32.501Z,9.95
2022-10-11T08:58:00.226Z,9.60
2022-10-11T09:00:31.095Z,11.13
2022-10-11T09:05:56.370Z,10.35
2022-10-11T09:08:33.061Z,11.65
2022-10-11T09:11:07.057Z,10.27
2022-10-11T09:13:51.799Z,11.85
2022-10-11T09:16:34.372Z,12.85
2022-10-11T09:19:11.058Z,8.43
2022-10-11T09:21:57.183Z,13.73
2022-10-11T09:24:34.060Z,9.02
2022-10-11T09:27:11.425Z,13.52
2022-10-11T09:30:17.372Z,10.98
2022-10-11T09:32:47.154Z,10.38
2022-10-11T09:35:16.234Z,16.52
2022-10-11T09:37:55.739Z,12.30
2022-10-11T09:40:23.390Z,11.80
2022-10-11T09:42:50.948Z,9.20
2022-10-11T09:45:20.013Z,11.20
2022-10-11T09:47:49.266Z,9.63
2022-10-11T09:50:19.390Z,13.75
2022-10-11T09:52:50.321Z,8.15
2022-10-11T09:55:50.675Z,12.20
2022-10-11T09:58:35.298Z,8.80
2022-10-11T10:01:07.933Z,10.45
2022-10-11T10:03:36.945Z,9.95
2022-10-11T10:06:09.478Z,7.00
2022-10-11T10:08:37.549Z,12.27
2022-10-11T10:11:06.499Z,14.82
2022-10-11T10:13:42.814Z,12.50
2022-10-11T10:16:21.456Z,13.10
2022-10-11T10:18:54.866Z,11.35
2022-10-11T10:21:45.947Z,13.02
2022-10-11T10:24:21.799Z,8.05
2022-10-11T10:27:08.288Z,14.48
2022-10-11T10:29:35.896Z,14.38
2022-10-11T10:32:14.203Z,9.07
2022-10-11T10:34:53.282Z,12.40
2022-10-11T10:37:25.980Z,9.90
2022-10-11T10:40:13.741Z,14.10
2022-10-11T10:42:41.250Z,11.38
2022-10-11T10:45:12.592Z,8.43
2022-10-11T10:47:44.261Z,7.57
2022-10-11T10:50:17.890Z,11.02
2022-10-11T10:52:54.575Z,6.43
2022-10-11T10:55:40.837Z,9.38
2022-10-11T10:58:22.503Z,8.77
2022-10-11T11:00:51.561Z,8.90
2022-10-11T11:03:26.999Z,11.63
2022-10-11T11:06:03.555Z,12.60
2022-10-11T11:08:49.921Z,12.38
2022-10-11T11:11:36.296Z,12.55
2022-10-11T11:14:22.690Z,16.08
2022-10-11T11:17:02.492Z,13.95
2022-10-11T11:19:30.202Z,10.02
2022-10-11T11:22:16.687Z,11.90
2022-10-11T11:24:57.765Z,9.25
2022-10-11T11:27:31.369Z,11.00
2022-10-11T11:30:05.269Z,8.90
2022-10-11T11:32:35.879Z,12.15
2022-10-11T11:35:05.175Z,10.45
2022-10-11T11:37:35.266Z,7.55
2022-10-11T11:40:07.092Z,11.27
2022-10-11T11:45:18.113Z,10.15
2022-10-11T11:47:48.554Z,12.52
2022-10-11T11:50:22.098Z,7.35
2022-10-11T11:53:00.000Z,12.32
2022-10-11T11:55:42.799Z,10.73
2022-10-11T11:58:10.274Z,7.43
2022-10-11T12:00:57.604Z,10.18
2022-10-11T12:03:27.903Z,12.00
2022-10-11T12:06:17.537Z,8.18
2022-10-11T12:08:49.993Z,14.45
2022-10-11T12:11:40.857Z,11.50
2022-10-11T12:14:19.475Z,11.52
2022-10-11T12:17:05.482Z,14.40
2022-10-11T12:19:33.290Z,9.45
2022-10-11T12:22:21.290Z,9.95
2022-10-11T12:24:56.215Z,9.88
2022-10-11T12:27:37.636Z,10.40
2022-10-11T12:30:06.239Z,6.70
2022-10-11T12:32:36.944Z,9.52
2022-10-11T12:35:23.338Z,10.02
2022-10-11T12:37:51.682Z,8.80
2022-10-11T12:40:36.685Z,6.90
2022-10-11T12:43:12.228Z,10.27
2022-10-11T12:45:41.139Z,8.82
2022-10-11T12:48:33.906Z,13.00
2022-10-11T12:51:03.669Z,11.75
2022-10-11T12:53:36.058Z,13.95
2022-10-11T12:56:12.670Z,10.02
2022-10-11T12:58:46.187Z,10.48
2022-10-11T13:01:17.408Z,10.35
2022-10-11T13:06:16.644Z,9.10
2022-10-11T13:08:45.749Z,11.93
2022-10-11T13:11:18.289Z,13.05
2022-10-11T13:13:49.201Z,11.52
2022-10-11T13:16:18.248Z,11.30
2022-10-11T13:18:47.141Z,10.70
2022-10-11T13:21:23.053Z,9.65
2022-10-11T13:23:54.745Z,10.02
2022-10-11T13:26:22.278Z,9.55
2022-10-11T13:28:49.890Z,8.48
2022-10-11T13:31:17.473Z,10.32
2022-10-11T13:33:45.897Z,9.38
2022-10-11T13:36:15.972Z,9.20
2022-10-11T13:38:50.618Z,11.45
2022-10-11T13:41:18.542Z,9.70
2022-10-11T13:43:46.126Z,7.75
2022-10-11T13:46:21.786Z,7.70
2022-10-11T13:49:21.931Z,10.00
2022-10-11T13:51:58.209Z,9.52
2022-10-11T13:54:25.767Z,8.18
2022-10-11T13:56:55.718Z,8.35
2022-10-11T13:59:28.104Z,13.27
2022-10-11T14:01:59.147Z,9.60
2022-10-11T14:04:29.762Z,9.03
2022-10-11T14:07:00.099Z,15.50
2022-10-11T14:09:31.762Z,10.20
2022-10-11T14:12:18.218Z,9.70
2022-10-11T14:14:48.326Z,10.68
2022-10-11T14:17:20.095Z,8.93
2022-10-11T14:19:48.938Z,8.18
2022-10-11T14:22:17.380Z,9.90
2022-10-11T14:24:48.045Z,10.98
2022-10-11T14:27:17.715Z,11.43
2022-10-11T14:29:55.545Z,10.15
2022-10-11T14:32:34.770Z,9.77
2022-10-11T14:35:02.446Z,13.23
2022-10-11T14:37:30.169Z,12.07
2022-10-11T14:39:57.690Z,10.38
2022-10-11T14:42:25.219Z,6.75
2022-10-11T14:44:52.785Z,9.65
2022-10-11T14:47:20.348Z,11.75
2022-10-11T14:49:47.881Z,9.18
2022-10-11T14:52:15.661Z,12.07
2022-10-11T14:54:43.250Z,11.00
2022-10-11T14:57:12.428Z,9.95
2022-10-11T14:59:41.071Z,11.93
2022-10-11T15:02:09.460Z,15.25
2022-10-11T15:04:36.997Z,12.15
2022-10-11T15:07:05.061Z,11.23
2022-10-11T15:09:32.835Z,18.20
2022-10-11T15:12:00.562Z,13.18
2022-10-11T15:14:28.302Z,10.13
2022-10-11T15:16:56.250Z,14.77
2022-10-11T15:19:24.852Z,9.23
2022-10-11T15:21:52.694Z,9.52
2022-10-11T15:24:20.242Z,10.02
2022-10-11T15:26:48.282Z,12.45
2022-10-11T15:29:20.308Z,11.43
2022-10-11T15:31:49.210Z,9.38
2022-10-11T15:34:16.954Z,11.10
2022-10-11T15:36:44.504Z,10.00
2022-10-11T15:39:26.946Z,13.13
2022-10-11T15:41:54.839Z,15.32
2022-10-11T15:44:22.354Z,9.65
2022-10-11T15:46:49.903Z,10.27
2022-10-11T15:49:17.885Z,12.50
2022-10-11T15:51:45.393Z,13.13
2022-10-11T15:54:12.890Z,10.95
2022-10-11T15:56:40.460Z,14.15
2022-10-11T15:59:08.168Z,13.98
2022-10-11T16:01:35.727Z,12.07
2022-10-11T16:04:03.229Z,11.35
2022-10-11T16:06:31.267Z,10.45
2022-10-11T16:08:58.776Z,12.52
2022-10-11T16:11:26.277Z,13.50
2022-10-11T16:13:53.795Z,13.25
2022-10-11T16:16:21.307Z,14.88
2022-10-11T16:18:50.328Z,12.85
2022-10-11T16:21:17.853Z,11.45
2022-10-11T16:23:45.382Z,10.75
2022-10-11T16:26:16.198Z,10.25
2022-10-11T16:28:43.921Z,11.65
2022-10-11T16:31:14.051Z,9.63
2022-10-11T16:33:47.978Z,11.90
2022-10-11T16:36:32.428Z,12.27
2022-10-11T16:39:00.978Z,10.68
2022-10-11T16:41:28.546Z,11.05
2022-10-11T16:43:56.407Z,11.15
2022-10-11T16:46:24.060Z,14.38
2022-10-11T16:48:54.066Z,14.93
2022-10-11T16:51:21.694Z,17.35
2022-10-11T16:53:49.266Z,11.95
2022-10-11T16:56:17.998Z,13.93
2022-10-11T16:58:45.531Z,10.60
2022-10-11T17:01:13.354Z,10.95
2022-10-11T17:03:40.937Z,13.43
2022-10-11T17:06:09.197Z,10.88
2022-10-11T17:08:37.026Z,13.68
2022-10-11T17:11:04.689Z,11.90
2022-10-11T17:13:32.449Z,14.80
2022-10-11T17:16:00.161Z,10.57
2022-10-11T17:18:27.740Z,9.77
2022-10-11T17:21:05.290Z,14.43
2022-10-11T17:23:33.631Z,16.10
2022-10-11T17:26:05.276Z,9.50
2022-10-11T17:28:37.252Z,12.38
2022-10-11T17:31:05.801Z,15.57
2022-10-11T17:33:33.768Z,16.77
2022-10-11T17:36:01.675Z,16.45
2022-10-11T17:38:29.761Z,14.57
2022-10-11T17:41:04.758Z,12.93
2022-10-11T17:43:32.582Z,15.43
2022-10-11T17:46:01.544Z,15.43
2022-10-11T17:48:29.593Z,19.30
2022-10-11T17:50:57.249Z,12.93
2022-10-11T17:53:24.930Z,19.42
2022-10-11T17:55:54.102Z,13.82
2022-10-11T17:58:21.611Z,15.10
2022-10-11T18:00:49.366Z,17.00
2022-10-11T18:03:16.963Z,16.73
2022-10-11T18:05:44.486Z,14.43
2022-10-11T18:08:12.038Z,17.73
2022-10-11T18:10:42.867Z,18.80
2022-10-11T18:13:15.328Z,13.75
2022-10-11T18:15:43.009Z,18.65
2022-10-11T18:18:11.714Z,19.33
2022-10-11T18:20:39.293Z,16.90
2022-10-11T18:23:06.773Z,21.40
2022-10-11T18:25:34.453Z,18.15
2022-10-11T18:28:01.963Z,18.83
2022-10-11T18:30:29.599Z,16.52
2022-10-11T18:32:57.223Z,21.75
2022-10-11T18:35:24.926Z,20.95
2022-10-11T18:37:53.463Z,19.75
2022-10-11T18:40:23.602Z,15.90
2022-10-11T18:42:51.114Z,19.90
2022-10-11T18:45:18.999Z,19.45
2022-10-11T18:47:46.602Z,18.35
2022-10-11T18:50:14.110Z,21.83
2022-10-11T18:52:44.561Z,21.02
2022-10-11T18:55:12.240Z,21.92
2022-10-11T18:57:39.953Z,23.17
2022-10-11T19:00:23.281Z,19.67
2022-10-11T19:02:55.646Z,19.20
2022-10-11T19:05:23.259Z,21.73
2022-10-11T19:07:50.838Z,18.20
2022-10-11T19:10:18.420Z,21.17
2022-10-11T19:12:45.995Z,21.27
2022-10-11T19:15:13.599Z,17.10
2022-10-11T19:17:41.284Z,21.27
2022-10-11T19:20:08.961Z,20.25
2022-10-11T19:22:36.519Z,17.98
2022-10-11T19:25:04.098Z,20.65
2022-10-11T19:27:31.628Z,19.48
2022-10-11T19:30:00.303Z,18.77
2022-10-11T19:32:27.920Z,20.98
2022-10-11T19:34:55.734Z,16.63
2022-10-11T19:37:23.323Z,17.30
2022-10-11T19:39:50.974Z,18.60
2022-10-11T19:42:18.494Z,24.08
2022-10-11T19:44:46.149Z,20.23
2022-10-11T19:47:13.861Z,26.42
2022-10-11T19:49:41.399Z,19.20
2022-10-11T19:52:09.490Z,17.50
2022-10-11T19:54:37.014Z,23.50
2022-10-11T19:57:04.619Z,25.15
2022-10-11T19:59:32.174Z,20.33
2022-10-11T20:01:59.961Z,21.17
2022-10-11T20:04:56.392Z,23.02
2022-10-11T20:07:15.360Z,24.27
2022-10-11T20:09:42.859Z,23.50
2022-10-11T20:12:10.557Z,22.25
2022-10-11T20:14:38.089Z,17.70
2022-10-11T20:17:05.627Z,17.98
2022-10-11T20:19:33.153Z,19.25
2022-10-11T20:22:01.669Z,20.85
2022-10-11T20:24:34.113Z,20.85
2022-10-11T20:27:02.883Z,23.90
2022-10-11T20:29:30.390Z,19.75
2022-10-11T20:31:58.803Z,23.38
2022-10-11T20:34:27.559Z,24.10
2022-10-11T20:36:55.088Z,21.48
2022-10-11T20:39:23.576Z,24.35
2022-10-11T20:41:51.134Z,23.20
2022-10-11T20:44:18.703Z,21.63
2022-10-11T20:46:46.290Z,20.77
2022-10-11T20:49:14.086Z,24.25
2022-10-11T20:51:42.289Z,25.17
2022-10-11T20:54:10.122Z,21.65
2022-10-11T20:56:37.711Z,22.73
2022-10-11T20:59:06.284Z,21.85
2022-10-11T21:01:38.565Z,24.25
2022-10-11T21:04:07.102Z,22.77
2022-10-11T21:06:35.065Z,26.15
2022-10-11T21:09:02.844Z,21.35
2022-10-11T21:11:33.583Z,22.15
2022-10-11T21:14:02.234Z,23.35
2022-10-11T21:16:29.792Z,25.02
2022-10-11T21:18:58.101Z,22.73
2022-10-11T21:21:26.175Z,23.85
2022-10-11T21:23:54.951Z,26.40
2022-10-11T21:26:22.532Z,24.25
2022-10-11T21:28:50.372Z,23.23
2022-10-11T21:31:18.781Z,20.98
2022-10-11T21:33:46.372Z,23.55
2022-10-11T21:36:15.114Z,26.55
2022-10-11T21:38:42.765Z,28.77
2022-10-11T21:41:12.295Z,29.08
2022-10-11T21:43:40.014Z,24.30
2022-10-11T21:46:10.540Z,24.83
2022-10-11T21:48:38.121Z,26.27
2022-10-11T21:51:05.788Z,25.80
2022-10-11T21:53:33.590Z,30.20
2022-10-11T21:56:01.586Z,25.98
2022-10-11T21:58:29.315Z,28.20
2022-10-11T22:00:57.014Z,21.25
2022-10-11T22:03:24.741Z,24.20
2022-10-11T22:05:52.247Z,26.52
2022-10-11T22:08:19.900Z,22.77
2022-10-11T22:10:53.329Z,27.73
2022-10-11T22:13:20.898Z,25.55
2022-10-11T22:15:48.921Z,26.23
2022-10-11T22:18:16.470Z,22.67
2022-10-11T22:20:43.964Z,25.95
2022-10-11T22:23:11.793Z,25.65
2022-10-11T22:25:39.785Z,31.02
2022-10-11T22:28:07.394Z,22.80
2022-10-11T22:30:35.314Z,25.23
2022-10-11T22:33:03.012Z,25.13
2022-10-11T22:35:32.520Z,26.63
2022-10-11T22:40:29.842Z,22.08
2022-10-11T22:42:57.524Z,26.88
2022-10-11T22:45:25.120Z,26.75
2022-10-11T22:47:52.621Z,29.48
2022-10-11T22:50:20.134Z,29.73
2022-10-11T22:52:47.637Z,25.67
2022-10-11T22:55:19.714Z,29.83
2022-10-11T22:57:47.700Z,28.50
2022-10-11T23:00:15.471Z,26.02
2022-10-11T23:02:43.123Z,27.10
2022-10-11T23:05:10.657Z,29.30
2022-10-11T23:07:38.550Z,27.20
2022-10-11T23:10:06.526Z,30.92
2022-10-11T23:12:34.684Z,28.40
2022-10-11T23:15:02.192Z,30.50
2022-10-11T23:17:29.706Z,34.72
2022-10-11T23:19:57.421Z,28.63
2022-10-11T23:22:25.002Z,27.80
2022-10-11T23:24:52.511Z,29.45
2022-10-11T23:27:20.061Z,29.45
2022-10-11T23:29:47.613Z,31.13
2022-10-11T23:32:15.221Z,30.23
2022-10-11T23:34:42.954Z,33.30
2022-10-11T23:37:10.499Z,25.73
2022-10-11T23:39:38.025Z,31.25
2022-10-11T23:42:05.572Z,26.27
2022-10-11T23:44:33.134Z,30.23
2022-10-11T23:47:00.682Z,29.75
2022-10-11T23:49:28.190Z,25.15
2022-10-11T23:51:55.782Z,34.30
2022-10-11T23:54:23.320Z,31.02
2022-10-11T23:56:50.828Z,30.10
2022-10-11T23:59:18.334Z,26.40
